Time;durP1;ratioP1;P1;durP2;ratioP2;P2;SDS_P1;SDS_P2;PMS_P1;PMS_P2;Temp;Humidity;BMP_temperature;BMP_pressure;BME280_temperature;BME280_humidity;BME280_pressure;Samples;Min_cycle;Max_cycle;Signal;HPM_P1;HPM_P2
2020/12/09 00:04:31;;;;;;;45.13;29.25;;;;;;;3.10;100.00;100052.03;10186855;29;20051;-70
2020/12/09 00:09:33;;;;;;;38.60;27.60;;;;;;;2.96;100.00;100052.31;10175538;29;20044;-69
2020/12/09 00:14:34;;;;;;;40.40;26.85;;;;;;;2.97;100.00;100056.63;10178363;29;20403;-70
2020/12/09 00:19:35;;;;;;;37.72;25.33;;;;;;;2.97;100.00;100062.69;10180490;29;20059;-70
2020/12/09 00:24:36;;;;;;;39.17;26.90;;;;;;;2.94;100.00;100059.28;10177486;29;20056;-69
2020/12/09 00:29:37;;;;;;;36.00;24.42;;;;;;;2.94;100.00;100056.69;10177568;29;20056;-69
2020/12/09 00:34:38;;;;;;;41.40;25.05;;;;;;;2.87;100.00;100058.59;10177034;29;20044;-70
2020/12/09 00:39:40;;;;;;;39.60;25.80;;;;;;;2.83;100.00;100066.50;10177779;29;20040;-70
2020/12/09 00:44:41;;;;;;;34.22;23.85;;;;;;;2.74;100.00;100069.28;10176786;29;20047;-69
2020/12/09 00:49:58;;;;;;;37.40;26.42;;;;;;;2.70;100.00;100065.03;10176389;29;20040;-70
2020/12/09 00:55:01;;;;;;;38.85;27.50;;;;;;;2.63;100.00;100070.38;10176161;29;20063;-69
2020/12/09 01:00:06;;;;;;;43.05;28.90;;;;;;;2.53;100.00;100079.22;10174559;29;20500;-70
2020/12/09 01:05:10;;;;;;;39.63;29.15;;;;;;;2.57;100.00;100080.91;10174640;29;20056;-69
2020/12/09 01:10:11;;;;;;;39.88;28.45;;;;;;;2.50;100.00;100081.91;10175612;29;20040;-69
2020/12/09 01:15:12;;;;;;;40.83;30.00;;;;;;;2.59;100.00;100105.13;10175294;29;20084;-69
2020/12/09 01:20:13;;;;;;;37.35;26.98;;;;;;;2.55;100.00;100100.88;10176893;29;20063;-69
2020/12/09 01:25:14;;;;;;;39.83;27.70;;;;;;;2.50;100.00;100101.84;10175621;29;20071;-70
2020/12/09 01:30:15;;;;;;;40.03;27.45;;;;;;;2.42;100.00;100094.22;10175503;29;20055;-69
2020/12/09 01:35:17;;;;;;;38.60;27.23;;;;;;;2.30;100.00;100091.81;10175877;29;20052;-69
2020/12/09 01:40:18;;;;;;;42.58;31.17;;;;;;;2.26;100.00;100103.16;10173482;29;20067;-70
2020/12/09 01:45:19;;;;;;;44.35;30.55;;;;;;;2.25;100.00;100114.47;10172976;29;20044;-70
2020/12/09 01:50:21;;;;;;;41.42;28.63;;;;;;;2.21;100.00;100108.44;10174354;29;20063;-70
2020/12/09 01:55:22;;;;;;;40.75;29.30;;;;;;;2.29;100.00;100119.56;10173966;29;20071;-69
2020/12/09 02:00:23;;;;;;;49.60;32.15;;;;;;;2.24;100.00;100116.19;10171687;29;20047;-69
2020/12/09 02:05:24;;;;;;;41.55;29.52;;;;;;;2.11;100.00;100113.81;10165309;29;20044;-69
2020/12/09 02:10:26;;;;;;;41.75;30.95;;;;;;;2.09;100.00;100113.03;10167005;29;20044;-70
2020/12/09 02:15:27;;;;;;;44.88;30.98;;;;;;;2.13;100.00;100136.31;10144124;29;20056;-69
2020/12/09 02:20:28;;;;;;;38.45;27.25;;;;;;;2.10;100.00;100151.09;10134280;29;20051;-69
2020/12/09 02:25:32;;;;;;;44.00;31.43;;;;;;;2.09;100.00;100141.59;10157438;29;20048;-70
2020/12/09 02:30:33;;;;;;;39.50;29.25;;;;;;;2.02;100.00;100139.97;10173606;29;20415;-70
2020/12/09 02:35:34;;;;;;;39.75;28.95;;;;;;;1.96;100.00;100146.13;10170762;29;20051;-69
2020/12/09 02:40:36;;;;;;;39.55;28.17;;;;;;;1.94;100.00;100149.63;10170703;29;20044;-69
2020/12/09 02:45:37;;;;;;;46.40;30.35;;;;;;;1.89;100.00;100157.50;10173755;29;20056;-69
2020/12/09 02:50:38;;;;;;;35.97;24.58;;;;;;;1.79;100.00;100159.38;10173034;29;20052;-69
2020/12/09 02:55:40;;;;;;;43.05;30.63;;;;;;;1.69;100.00;100150.03;10171910;29;20460;-69
2020/12/09 03:00:41;;;;;;;40.22;29.23;;;;;;;1.68;100.00;100160.44;10172257;29;20428;-69
2020/12/09 03:05:42;;;;;;;38.60;29.60;;;;;;;1.62;100.00;100144.94;10172171;29;20048;-69
2020/12/09 03:10:43;;;;;;;49.88;31.92;;;;;;;1.59;100.00;100158.00;10172525;29;20369;-69
2020/12/09 03:15:44;;;;;;;44.38;30.42;;;;;;;1.51;100.00;100177.13;10172273;29;20044;-69
2020/12/09 03:20:46;;;;;;;44.85;30.50;;;;;;;1.38;100.00;100156.56;10172346;29;20048;-69
2020/12/09 03:25:47;;;;;;;42.25;30.00;;;;;;;1.53;100.00;100179.69;10170922;29;20057;-69
2020/12/09 03:30:48;;;;;;;43.45;29.45;;;;;;;1.34;100.00;100167.88;10171336;29;20055;-69
2020/12/09 03:35:49;;;;;;;50.80;34.13;;;;;;;1.24;100.00;100164.53;10171407;29;20048;-69
2020/12/09 03:40:50;;;;;;;43.90;29.13;;;;;;;1.23;100.00;100169.75;10184846;29;20043;-69
2020/12/09 03:45:51;;;;;;;52.42;33.50;;;;;;;1.01;100.00;100176.94;10201988;29;20043;-69
2020/12/09 03:50:53;;;;;;;55.58;33.63;;;;;;;0.98;100.00;100171.81;10179030;29;20052;-69
2020/12/09 03:55:54;;;;;;;56.50;35.90;;;;;;;0.93;100.00;100178.75;10177350;29;20063;-69
2020/12/09 04:00:55;;;;;;;61.92;38.38;;;;;;;0.82;100.00;100173.72;10177403;29;20052;-70
2020/12/09 04:05:56;;;;;;;60.85;37.20;;;;;;;0.92;100.00;100203.84;10179113;29;20052;-70
2020/12/09 04:10:57;;;;;;;68.20;37.70;;;;;;;0.69;100.00;100201.50;10179527;29;20052;-69
2020/12/09 04:15:58;;;;;;;63.80;39.13;;;;;;;0.70;100.00;100212.72;10178533;29;20044;-69
2020/12/09 04:21:00;;;;;;;60.95;36.00;;;;;;;0.80;100.00;100219.53;10178706;29;20040;-69
2020/12/09 04:26:01;;;;;;;44.63;29.52;;;;;;;0.94;100.00;100230.63;10178490;29;20056;-69
2020/12/09 04:31:03;;;;;;;46.88;30.40;;;;;;;1.09;100.00;100226.97;10177868;29;20071;-70
2020/12/09 04:36:04;;;;;;;43.63;30.52;;;;;;;1.07;100.00;100232.22;10176744;29;20044;-70
2020/12/09 04:41:06;;;;;;;47.55;29.70;;;;;;;1.02;100.00;100223.59;10177530;29;20048;-70
2020/12/09 04:46:07;;;;;;;46.67;31.92;;;;;;;1.10;100.00;100219.19;10176638;29;20051;-70
2020/12/09 04:51:27;;;;;;;48.42;31.73;;;;;;;1.25;100.00;100222.50;10178146;29;20048;-70
2020/12/09 04:56:39;;;;;;;48.22;32.78;;;;;;;1.30;100.00;100218.94;10178714;29;20048;-69
2020/12/09 05:02:06;;;;;;;55.45;34.33;;;;;;;1.39;100.00;100223.16;10177560;29;20472;-69
2020/12/09 05:07:10;;;;;;;46.38;27.95;;;;;;;1.34;100.00;100220.59;10139064;29;20041;-69
2020/12/09 05:12:14;;;;;;;42.83;28.73;;;;;;;1.35;100.00;100226.66;10138145;29;20397;-69
2020/12/09 05:17:18;;;;;;;41.85;28.08;;;;;;;1.30;100.00;100228.47;10144985;29;20037;-70
2020/12/09 05:22:21;;;;;;;43.70;28.63;;;;;;;1.23;100.00;100232.03;10177720;29;20059;-69
2020/12/09 05:27:22;;;;;;;45.35;28.17;;;;;;;1.22;100.00;100227.69;10169020;29;20060;-69
2020/12/09 05:32:23;;;;;;;46.72;29.67;;;;;;;1.11;100.00;100213.13;10178119;29;20055;-69
2020/12/09 05:37:24;;;;;;;40.85;27.60;;;;;;;1.10;100.00;100223.50;10176251;29;20047;-69
2020/12/09 05:42:25;;;;;;;44.95;28.13;;;;;;;1.23;100.00;100237.22;10169117;29;20056;-70
2020/12/09 05:47:27;;;;;;;41.55;27.30;;;;;;;1.11;100.00;100238.19;10172805;29;20646;-70
2020/12/09 05:52:28;;;;;;;45.00;30.58;;;;;;;1.07;100.00;100242.59;10176067;29;20483;-69
2020/12/09 05:57:30;;;;;;;42.22;29.58;;;;;;;1.21;100.00;100254.53;10175983;29;20403;-69
2020/12/09 06:02:31;;;;;;;45.75;32.72;;;;;;;1.21;100.00;100260.56;10176301;29;20040;-69
2020/12/09 06:07:32;;;;;;;42.67;29.92;;;;;;;1.31;100.00;100266.50;10175938;29;20376;-69
2020/12/09 06:12:53;;;;;;;47.47;30.98;;;;;;;1.41;100.00;100268.97;10175151;29;20050;-69
2020/12/09 06:18:21;;;;;;;49.33;31.48;;;;;;;1.40;100.00;100267.25;10175454;29;20067;-69
2020/12/09 06:23:26;;;;;;;40.72;28.42;;;;;;;1.27;100.00;100252.69;10175417;29;20063;-69
2020/12/09 06:28:30;;;;;;;48.03;32.35;;;;;;;1.35;100.00;100256.06;10174426;29;20056;-69
2020/12/09 06:33:33;;;;;;;41.53;30.17;;;;;;;1.32;100.00;100256.13;10175721;29;20040;-70
2020/12/09 06:38:35;;;;;;;44.55;30.70;;;;;;;1.30;100.00;100252.69;10171360;29;20044;-69
2020/12/09 06:43:36;;;;;;;41.75;30.42;;;;;;;1.20;100.00;100261.44;10172271;29;20059;-69
2020/12/09 06:48:38;;;;;;;43.40;29.58;;;;;;;1.09;100.00;100264.16;10173121;29;20060;-69
2020/12/09 06:53:39;;;;;;;44.92;30.00;;;;;;;1.02;100.00;100265.09;10173925;29;20047;-69
2020/12/09 06:58:40;;;;;;;45.60;33.60;;;;;;;0.98;100.00;100291.97;10171584;29;20153;-70
2020/12/09 07:03:51;;;;;;;47.03;31.20;;;;;;;1.14;100.00;100301.28;10173824;29;20044;-70
2020/12/09 07:08:52;;;;;;;44.95;30.83;;;;;;;1.04;100.00;100291.03;10172495;29;20059;-70
2020/12/09 07:14:01;;;;;;;45.05;29.15;;;;;;;0.85;100.00;100279.97;10172224;29;20052;-70
2020/12/09 07:19:02;;;;;;;47.20;33.15;;;;;;;0.81;100.00;100291.28;10172129;29;20071;-70
2020/12/09 07:24:03;;;;;;;49.35;32.92;;;;;;;0.70;100.00;100290.50;10172257;29;20048;-71
2020/12/09 07:29:04;;;;;;;46.42;32.70;;;;;;;0.65;100.00;100289.69;10169679;29;20060;-71
2020/12/09 07:34:05;;;;;;;43.53;28.38;;;;;;;0.52;100.00;100282.88;10171732;29;20044;-68
2020/12/09 07:39:06;;;;;;;41.92;30.00;;;;;;;0.43;100.00;100286.41;10172422;29;20389;-67
2020/12/09 07:44:08;;;;;;;46.20;32.65;;;;;;;0.36;100.00;100295.97;10169165;29;20048;-68
2020/12/09 07:49:12;;;;;;;55.25;35.35;;;;;;;0.25;100.00;100302.97;10168887;29;20048;-68
2020/12/09 07:54:14;;;;;;;40.88;29.25;;;;;;;0.07;100.00;100304.84;10174065;29;20052;-68
2020/12/09 07:59:15;;;;;;;36.50;25.92;;;;;;;0.18;100.00;100303.03;10171252;29;20047;-69
2020/12/09 08:04:24;;;;;;;42.53;29.73;;;;;;;0.51;100.00;100315.72;10171309;29;20055;-68
2020/12/09 08:09:25;;;;;;;38.05;26.45;;;;;;;1.36;100.00;100325.25;10171534;29;20044;-68
2020/12/09 08:14:33;;;;;;;43.47;28.38;;;;;;;1.90;100.00;100308.13;10171751;29;20052;-70
2020/12/09 08:19:34;;;;;;;36.15;27.13;;;;;;;2.39;100.00;100304.81;10170868;29;20048;-70
2020/12/09 08:24:35;;;;;;;34.22;25.13;;;;;;;3.02;100.00;100288.97;10177319;29;20051;-70
2020/12/09 08:29:36;;;;;;;36.17;27.73;;;;;;;3.59;100.00;100286.13;10179242;29;20066;-70
2020/12/09 08:34:37;;;;;;;32.10;24.83;;;;;;;4.04;100.00;100287.69;10164462;29;20060;-68
2020/12/09 08:39:38;;;;;;;34.60;27.95;;;;;;;3.98;100.00;100287.84;10178951;29;20048;-68
2020/12/09 08:44:39;;;;;;;29.83;24.27;;;;;;;3.22;100.00;100267.78;10178959;29;20044;-68
2020/12/09 08:49:40;;;;;;;45.22;35.67;;;;;;;2.97;100.00;100277.78;10178321;29;20040;-68
2020/12/09 08:54:41;;;;;;;34.75;27.55;;;;;;;2.01;100.00;100250.81;10177528;29;20047;-68
2020/12/09 08:59:42;;;;;;;35.55;25.00;;;;;;;1.40;100.00;100253.44;10177469;29;20048;-68
2020/12/09 09:04:43;;;;;;;34.45;25.42;;;;;;;2.18;100.00;100298.19;10178189;29;20044;-68
2020/12/09 09:09:45;;;;;;;33.22;26.20;;;;;;;4.52;100.00;100331.78;10177402;29;20048;-69
2020/12/09 09:14:46;;;;;;;35.60;27.40;;;;;;;5.85;100.00;100337.81;10177214;29;20056;-68
2020/12/09 09:19:48;;;;;;;36.63;27.45;;;;;;;6.34;97.12;100336.34;10176726;29;20054;-68
2020/12/09 09:24:49;;;;;;;33.22;26.70;;;;;;;4.94;100.00;100298.53;10177540;29;20079;-69
2020/12/09 09:29:51;;;;;;;34.55;28.17;;;;;;;6.12;98.47;100327.44;10175339;29;20048;-68
2020/12/09 09:34:53;;;;;;;33.28;27.92;;;;;;;5.99;97.99;100314.75;10175196;29;20511;-68
2020/12/09 09:39:54;;;;;;;32.33;26.58;;;;;;;7.73;86.80;100346.41;10175436;29;20448;-68
2020/12/09 09:44:55;;;;;;;32.95;27.38;;;;;;;8.35;79.95;100348.44;10177481;29;20044;-69
2020/12/09 09:49:56;;;;;;;36.00;26.38;;;;;;;8.48;77.14;100340.94;10176114;29;20059;-69
2020/12/09 09:54:58;;;;;;;32.47;26.27;;;;;;;8.43;76.40;100330.63;10175669;29;20056;-69
2020/12/09 09:59:59;;;;;;;28.83;25.23;;;;;;;7.42;85.74;100323.06;10174631;29;20059;-69
2020/12/09 10:05:00;;;;;;;32.28;27.95;;;;;;;8.04;79.29;100351.34;10175418;29;20051;-68
2020/12/09 10:10:03;;;;;;;28.48;23.52;;;;;;;6.64;85.28;100317.03;10174288;29;20142;-68
2020/12/09 10:15:04;;;;;;;27.80;21.60;;;;;;;7.00;81.17;100312.34;10174912;29;20040;-68
2020/12/09 10:20:05;;;;;;;24.70;21.05;;;;;;;8.37;74.40;100346.59;10174901;29;20044;-68
2020/12/09 10:25:07;;;;;;;25.77;21.38;;;;;;;8.21;73.14;100327.09;10174712;29;20099;-68
2020/12/09 10:30:08;;;;;;;26.50;23.17;;;;;;;8.88;73.26;100342.78;10173213;29;20052;-67
2020/12/09 10:35:09;;;;;;;29.85;25.55;;;;;;;10.56;67.55;100345.72;10173244;29;20431;-68
2020/12/09 10:40:11;;;;;;;28.65;24.92;;;;;;;10.50;66.47;100310.94;10174059;29;20048;-68
2020/12/09 10:45:12;;;;;;;29.38;26.20;;;;;;;10.83;65.96;100284.69;10173367;29;20048;-67
2020/12/09 10:50:13;;;;;;;29.60;26.48;;;;;;;11.41;64.08;100288.66;10174707;29;20112;-67
2020/12/09 10:55:14;;;;;;;30.05;26.95;;;;;;;11.13;64.01;100280.47;10174039;29;20040;-68
2020/12/09 11:00:15;;;;;;;31.40;27.50;;;;;;;11.21;64.30;100278.31;10172868;29;20056;-68
2020/12/09 11:05:16;;;;;;;29.33;26.15;;;;;;;11.58;62.32;100274.59;10172585;29;20063;-68
2020/12/09 11:10:17;;;;;;;27.58;24.60;;;;;;;11.38;61.16;100261.63;10173705;29;20384;-68
2020/12/09 11:15:18;;;;;;;28.95;24.75;;;;;;;12.07;60.92;100274.56;10171694;29;20040;-69
2020/12/09 11:20:20;;;;;;;29.65;26.48;;;;;;;11.72;60.33;100261.47;10173353;29;20048;-68
2020/12/09 11:25:24;;;;;;;30.92;27.67;;;;;;;10.97;63.86;100248.78;10172141;29;20044;-68
2020/12/09 11:30:25;;;;;;;31.42;27.98;;;;;;;9.79;69.21;100255.47;10171500;29;20048;-69
2020/12/09 11:35:28;;;;;;;33.85;30.27;;;;;;;10.20;68.30;100261.47;10177454;29;20059;-69
2020/12/09 11:40:29;;;;;;;37.70;31.48;;;;;;;8.51;72.16;100230.56;10171872;29;20036;-70
2020/12/09 11:45:31;;;;;;;38.55;29.67;;;;;;;8.44;72.60;100235.22;10170831;29;20059;-69
2020/12/09 11:50:33;;;;;;;39.10;30.13;;;;;;;10.29;69.08;100270.69;10171112;29;20415;-69
2020/12/09 11:55:34;;;;;;;39.22;30.80;;;;;;;9.95;69.88;100263.53;10172249;29;20040;-69
2020/12/09 12:00:35;;;;;;;40.35;32.88;;;;;;;9.59;70.16;100229.25;10177867;29;20044;-68
2020/12/09 12:05:37;;;;;;;38.28;31.10;;;;;;;7.83;80.89;100208.78;10179741;29;20051;-69
2020/12/09 12:10:38;;;;;;;37.45;30.33;;;;;;;7.99;78.40;100204.63;10180010;29;20139;-68
2020/12/09 12:15:41;;;;;;;38.83;32.78;;;;;;;9.15;75.16;100244.41;10177217;29;20051;-69
2020/12/09 12:20:42;;;;;;;39.00;31.50;;;;;;;8.48;76.69;100217.56;10177970;29;20048;-69
2020/12/09 12:25:46;;;;;;;41.30;32.47;;;;;;;7.88;83.33;100216.47;10177732;29;20492;-69
2020/12/09 12:30:47;;;;;;;42.20;34.38;;;;;;;8.29;78.72;100206.91;10177651;29;20051;-69
2020/12/09 12:35:48;;;;;;;44.53;32.65;;;;;;;8.57;79.15;100206.66;10177610;29;20051;-69
2020/12/09 12:40:50;;;;;;;41.95;32.30;;;;;;;7.86;81.93;100192.09;10179021;29;20499;-69
2020/12/09 12:45:51;;;;;;;48.92;36.25;;;;;;;7.06;86.69;100168.06;10177546;29;20044;-69
2020/12/09 12:50:53;;;;;;;48.53;35.22;;;;;;;7.44;84.83;100178.88;10178791;29;20056;-69
2020/12/09 12:55:54;;;;;;;47.65;34.30;;;;;;;6.99;88.01;100177.06;10178493;29;20405;-69
2020/12/09 13:00:57;;;;;;;43.80;31.58;;;;;;;6.00;89.35;100140.41;10176976;29;20499;-69
2020/12/09 13:05:58;;;;;;;52.63;35.60;;;;;;;5.37;100.00;100144.13;10178305;29;20443;-69
2020/12/09 13:10:59;;;;;;;48.70;33.58;;;;;;;5.49;100.00;100143.75;10175613;29;20048;-69
2020/12/09 13:16:02;;;;;;;51.90;36.15;;;;;;;6.12;97.26;100175.75;10175900;29;20044;-68
2020/12/09 13:21:04;;;;;;;51.35;34.45;;;;;;;5.25;100.00;100160.16;10176796;29;20050;-69
2020/12/09 13:26:05;;;;;;;47.22;32.55;;;;;;;6.80;99.40;100216.13;10175380;29;20416;-68
2020/12/09 13:31:06;;;;;;;50.97;35.70;;;;;;;6.91;94.49;100213.13;10175567;29;20407;-68
2020/12/09 13:36:07;;;;;;;51.92;37.38;;;;;;;6.64;92.93;100188.78;10175580;29;20051;-68
2020/12/09 13:41:09;;;;;;;56.50;37.85;;;;;;;5.52;98.23;100158.50;10177205;29;20055;-68
2020/12/09 13:46:10;;;;;;;50.67;34.13;;;;;;;4.82;100.00;100155.31;10175133;29;20051;-68
2020/12/09 13:51:11;;;;;;;44.05;30.35;;;;;;;3.78;100.00;100138.91;10175092;29;20044;-68
2020/12/09 13:56:12;;;;;;;49.30;32.85;;;;;;;3.59;100.00;100161.09;10174945;29;20044;-68
2020/12/09 14:01:13;;;;;;;46.10;31.27;;;;;;;3.56;100.00;100168.97;10164468;29;20048;-67
2020/12/09 14:06:25;;;;;;;42.15;29.55;;;;;;;3.49;100.00;100181.28;10175618;29;20468;-68
2020/12/09 14:11:30;;;;;;;48.63;33.63;;;;;;;3.45;100.00;100179.63;10174320;29;20048;-69
2020/12/09 14:16:34;;;;;;;50.40;33.60;;;;;;;3.34;100.00;100177.28;10173571;29;20059;-69
2020/12/09 14:21:38;;;;;;;51.03;33.22;;;;;;;2.92;100.00;100172.97;10174862;29;20040;-69
2020/12/09 14:26:40;;;;;;;58.03;36.77;;;;;;;2.80;100.00;100181.00;10174058;29;20465;-69
2020/12/09 14:31:42;;;;;;;50.90;34.35;;;;;;;2.70;100.00;100184.66;10174782;29;20052;-69
2020/12/09 14:36:48;;;;;;;51.88;33.08;;;;;;;2.59;100.00;100177.94;10173605;29;20040;-69
2020/12/09 14:41:51;;;;;;;51.08;33.00;;;;;;;2.79;100.00;100189.69;10174166;29;20044;-68
2020/12/09 14:46:52;;;;;;;54.05;34.60;;;;;;;2.61;100.00;100183.94;10173249;29;20063;-68
2020/12/09 14:51:54;;;;;;;47.22;29.98;;;;;;;2.26;100.00;100168.97;10174293;29;20157;-68
2020/12/09 14:56:55;;;;;;;44.25;27.33;;;;;;;2.24;100.00;100170.78;10172828;29;20040;-68
2020/12/09 15:01:57;;;;;;;45.22;28.65;;;;;;;2.43;100.00;100173.88;10174291;29;20048;-68
2020/12/09 15:06:58;;;;;;;47.83;30.35;;;;;;;2.15;100.00;100164.88;10172967;29;20063;-68
2020/12/09 15:12:00;;;;;;;52.55;30.13;;;;;;;1.73;100.00;100159.50;10172349;29;20511;-68
2020/12/09 15:17:01;;;;;;;39.15;26.20;;;;;;;1.38;100.00;100161.75;10172529;29;20048;-68
2020/12/09 15:22:02;;;;;;;44.30;27.38;;;;;;;1.19;100.00;100160.28;10171833;29;20143;-68
2020/12/09 15:27:03;;;;;;;44.40;27.80;;;;;;;1.11;100.00;100162.97;10180406;29;20056;-68
2020/12/09 15:32:05;;;;;;;43.70;27.38;;;;;;;0.92;100.00;100151.13;10172863;29;20048;-68
2020/12/09 15:37:06;;;;;;;42.50;26.88;;;;;;;0.65;100.00;100152.31;10172269;29;20047;-67
2020/12/09 15:42:11;;;;;;;42.10;26.42;;;;;;;0.79;100.00;100168.56;10172182;29;20257;-67
2020/12/09 15:47:12;;;;;;;40.55;26.45;;;;;;;1.08;100.00;100182.06;10172115;29;20397;-67
2020/12/09 15:52:13;;;;;;;37.70;25.02;;;;;;;1.65;100.00;100194.25;10172252;29;20052;-68
2020/12/09 15:57:14;;;;;;;39.75;25.92;;;;;;;1.92;100.00;100199.03;10171991;29;20063;-68
2020/12/09 16:02:15;;;;;;;40.05;25.40;;;;;;;1.83;100.00;100178.41;10172254;29;20048;-69
2020/12/09 16:07:16;;;;;;;38.28;23.90;;;;;;;1.80;100.00;100183.63;10170934;29;20111;-69
2020/12/09 16:12:18;;;;;;;35.28;22.60;;;;;;;1.59;100.00;100171.81;10172355;29;20051;-70
2020/12/09 16:17:19;;;;;;;40.47;24.92;;;;;;;1.45;100.00;100171.16;10169280;29;20091;-70
2020/12/09 16:22:32;;;;;;;37.65;23.30;;;;;;;1.29;100.00;100165.31;10145078;29;20059;-70
2020/12/09 16:27:34;;;;;;;28.23;18.92;;;;;;;0.60;100.00;100149.75;10167633;29;20063;-69
2020/12/09 16:32:35;;;;;;;29.38;20.38;;;;;;;0.62;100.00;100165.31;10155552;29;20048;-71
2020/12/09 16:37:37;;;;;;;34.70;22.30;;;;;;;0.62;100.00;100183.44;10159678;29;20055;-69
2020/12/09 16:42:41;;;;;;;33.65;22.13;;;;;;;0.71;100.00;100198.91;10152372;29;20376;-69
2020/12/09 16:47:43;;;;;;;36.42;23.60;;;;;;;0.82;100.00;100204.84;10166332;29;20072;-69
2020/12/09 16:52:44;;;;;;;31.70;20.65;;;;;;;0.85;100.00;100212.56;10177540;29;20044;-68
2020/12/09 16:57:45;;;;;;;26.55;19.00;;;;;;;0.84;100.00;100221.22;10175201;29;20059;-69
2020/12/09 17:02:46;;;;;;;31.83;21.52;;;;;;;0.70;100.00;100225.69;10177328;29;20534;-69
2020/12/09 17:07:47;;;;;;;31.35;21.25;;;;;;;0.39;100.00;100212.19;10170528;29;20392;-68
2020/12/09 17:12:49;;;;;;;34.28;22.42;;;;;;;0.10;100.00;100212.44;10175976;29;20677;-69
2020/12/09 17:17:50;;;;;;;30.52;20.75;;;;;;;0.43;100.00;100228.56;10174442;29;20051;-69
2020/12/09 17:22:51;;;;;;;30.73;19.30;;;;;;;0.64;100.00;100237.00;10175689;29;20040;-69
2020/12/09 17:27:52;;;;;;;30.35;18.73;;;;;;;0.71;100.00;100248.16;10175478;29;20420;-69
2020/12/09 17:32:53;;;;;;;31.15;18.63;;;;;;;0.57;100.00;100240.53;10173962;29;20043;-69
2020/12/09 17:37:54;;;;;;;28.35;19.95;;;;;;;0.43;100.00;100239.78;10177427;29;20055;-69
2020/12/09 17:42:55;;;;;;;36.03;22.75;;;;;;;0.33;100.00;100223.47;10149582;29;20054;-69
2020/12/09 17:47:57;;;;;;;33.05;20.88;;;;;;;0.39;100.00;100235.50;10176088;29;20032;-69
2020/12/09 17:52:58;;;;;;;27.75;19.35;;;;;;;0.25;100.00;100230.44;10175588;29;20050;-69
2020/12/09 17:58:01;;;;;;;29.17;18.35;;;;;;;0.18;100.00;100243.44;10171486;29;20050;-69
2020/12/09 18:03:02;;;;;;;25.83;18.05;;;;;;;0.05;100.00;100242.69;10151808;29;20048;-69
2020/12/09 18:08:04;;;;;;;24.15;18.35;;;;;;;0.24;100.00;100251.19;10176509;29;20047;-69
2020/12/09 18:13:05;;;;;;;25.40;16.60;;;;;;;0.21;100.00;100251.22;10175693;29;20048;-69
2020/12/09 18:18:07;;;;;;;29.13;18.38;;;;;;;-0.22;100.00;100240.28;10176245;29;20388;-69
2020/12/09 18:23:08;;;;;;;43.35;27.92;;;;;;;-0.34;100.00;100242.97;10175601;29;20551;-69
2020/12/09 18:28:09;;;;;;;32.85;23.15;;;;;;;-0.33;100.00;100242.94;10174733;29;20056;-69
2020/12/09 18:33:10;;;;;;;25.98;16.77;;;;;;;-0.37;100.00;100249.03;10172230;29;20055;-68
2020/12/09 18:38:12;;;;;;;27.65;19.42;;;;;;;-0.51;100.00;100254.28;10173605;29;20047;-69
2020/12/09 18:43:16;;;;;;;28.63;18.88;;;;;;;-0.29;100.00;100261.91;10173148;29;20050;-68
2020/12/09 18:48:17;;;;;;;31.52;19.83;;;;;;;-0.46;100.00;100265.47;10173741;29;20048;-68
2020/12/09 18:53:18;;;;;;;25.52;17.15;;;;;;;-0.60;100.00;100248.28;10173708;29;20048;-70
2020/12/09 18:58:20;;;;;;;23.98;16.13;;;;;;;-0.62;100.00;100268.13;10174196;29;20044;-70
2020/12/09 19:03:21;;;;;;;23.67;15.75;;;;;;;-0.91;100.00;100256.16;10166517;29;20044;-70
2020/12/09 19:08:22;;;;;;;22.70;15.95;;;;;;;-0.85;100.00;100273.41;10168049;29;20048;-70
2020/12/09 19:13:23;;;;;;;24.45;15.70;;;;;;;-0.97;100.00;100274.28;10172292;29;20133;-70
2020/12/09 19:18:25;;;;;;;24.33;16.23;;;;;;;-0.91;100.00;100282.00;10175049;29;20076;-69
2020/12/09 19:23:26;;;;;;;25.80;18.85;;;;;;;-0.82;100.00;100279.41;10168311;29;20404;-70
2020/12/09 19:28:27;;;;;;;24.55;16.80;;;;;;;-0.59;100.00;100289.69;10171467;29;20060;-70
2020/12/09 19:33:30;;;;;;;26.63;17.15;;;;;;;-0.62;100.00;100278.47;10174232;29;20059;-69
2020/12/09 19:38:31;;;;;;;35.00;18.20;;;;;;;-0.73;100.00;100262.13;10173712;29;20048;-70
2020/12/09 19:43:32;;;;;;;28.38;17.40;;;;;;;-1.17;100.00;100252.78;10174120;29;20054;-70
2020/12/09 19:48:34;;;;;;;25.48;16.83;;;;;;;-1.22;100.00;100247.63;10172657;29;20076;-70
2020/12/09 19:53:35;;;;;;;24.83;17.48;;;;;;;-1.20;100.00;100257.97;10173525;29;20415;-70
2020/12/09 19:58:38;;;;;;;27.40;18.13;;;;;;;-1.21;100.00;100258.84;10172823;29;20074;-70
2020/12/09 20:03:40;;;;;;;22.52;15.88;;;;;;;-1.23;100.00;100265.72;10174259;29;20055;-70
2020/12/09 20:08:41;;;;;;;27.63;17.58;;;;;;;-1.10;100.00;100266.56;10170747;29;20036;-70
2020/12/09 20:13:43;;;;;;;28.60;17.92;;;;;;;-1.40;100.00;100239.06;10172236;29;20044;-70
2020/12/09 20:18:44;;;;;;;24.80;16.27;;;;;;;-1.51;100.00;100249.44;10177390;29;20046;-69
2020/12/09 20:23:45;;;;;;;23.58;15.90;;;;;;;-1.43;100.00;100245.13;10181143;29;20047;-70
2020/12/09 20:28:48;;;;;;;26.42;17.20;;;;;;;-1.66;100.00;100228.75;10181017;29;20094;-70
2020/12/09 20:33:50;;;;;;;24.67;16.60;;;;;;;-1.49;100.00;100245.09;10181218;29;20444;-70
2020/12/09 20:38:52;;;;;;;23.20;15.88;;;;;;;-1.40;100.00;100249.41;10179558;29;20484;-69
2020/12/09 20:43:54;;;;;;;30.40;18.65;;;;;;;-1.37;100.00;100259.72;10178496;29;20050;-69
2020/12/09 20:48:57;;;;;;;25.77;17.10;;;;;;;-1.62;100.00;100253.75;10179660;29;20044;-70
2020/12/09 20:53:58;;;;;;;27.45;18.35;;;;;;;-1.63;100.00;100263.22;10180350;29;20448;-70
2020/12/09 20:58:59;;;;;;;26.45;17.00;;;;;;;-1.91;100.00;100257.19;10178278;29;20036;-70
2020/12/09 21:04:00;;;;;;;26.08;16.80;;;;;;;-1.95;100.00;100262.34;10178785;29;20056;-70
2020/12/09 21:09:04;;;;;;;29.95;18.10;;;;;;;-1.73;100.00;100260.63;10179769;29;20373;-70
2020/12/09 21:14:06;;;;;;;29.75;17.92;;;;;;;-1.80;100.00;100266.66;10179217;29;20407;-69
2020/12/09 21:19:07;;;;;;;27.95;18.63;;;;;;;-2.00;100.00;100264.03;10177952;29;20063;-69
2020/12/09 21:24:08;;;;;;;28.40;16.90;;;;;;;-2.05;100.00;100256.31;10179027;29;20055;-69
2020/12/09 21:29:09;;;;;;;27.25;16.92;;;;;;;-1.89;100.00;100262.34;10179828;29;20044;-71
2020/12/09 21:34:10;;;;;;;29.45;18.35;;;;;;;-1.84;100.00;100259.78;10180939;29;20560;-69
2020/12/09 21:39:12;;;;;;;30.02;18.15;;;;;;;-1.63;100.00;100254.59;10178054;29;20044;-69
2020/12/09 21:44:13;;;;;;;25.95;17.17;;;;;;;-1.57;100.00;100249.41;10177793;29;20044;-70
2020/12/09 21:49:16;;;;;;;31.50;19.27;;;;;;;-1.75;100.00;100239.97;10160958;29;20404;-70
2020/12/09 21:54:18;;;;;;;32.28;19.60;;;;;;;-1.85;100.00;100232.25;10172337;29;20071;-70
2020/12/09 21:59:19;;;;;;;32.20;18.73;;;;;;;-1.91;100.00;100233.06;10164869;29;20055;-70
2020/12/09 22:04:20;;;;;;;28.58;16.85;;;;;;;-2.02;100.00;100225.34;10165518;29;20044;-69
2020/12/09 22:09:21;;;;;;;27.88;17.42;;;;;;;-1.91;100.00;100227.91;10164589;29;20048;-70
2020/12/09 22:14:25;;;;;;;28.70;18.48;;;;;;;-1.90;100.00;100224.47;10175956;29;20048;-70
2020/12/09 22:19:26;;;;;;;32.28;20.40;;;;;;;-1.90;100.00;100224.47;10178065;29;20056;-70
2020/12/09 22:24:28;;;;;;;34.25;21.50;;;;;;;-1.81;100.00;100232.22;10178224;29;20052;-70
2020/12/09 22:29:29;;;;;;;32.67;19.67;;;;;;;-1.77;100.00;100225.34;10179179;29;20056;-70
2020/12/09 22:34:34;;;;;;;35.10;19.63;;;;;;;-1.76;100.00;100216.75;10177942;29;20067;-69
2020/12/09 22:39:35;;;;;;;39.60;22.15;;;;;;;-1.73;100.00;100219.31;10175758;29;20071;-69